createdAt,value
2023-05-16T00:00:38.096Z,956.4
2023-05-16T00:01:44.233Z,956.5
2023-05-16T00:03:56.512Z,956.4
2023-05-16T00:05:02.663Z,956.5
2023-05-16T00:06:08.810Z,956.4
2023-05-16T00:07:14.965Z,956.4
2023-05-16T00:11:39.521Z,956.4
2023-05-16T00:12:44.705Z,956.4
2023-05-16T00:14:56.981Z,956.4
2023-05-16T00:16:03.139Z,956.4
2023-05-16T00:17:09.261Z,956.4
2023-05-16T00:21:33.829Z,956.4
2023-05-16T00:22:39.976Z,956.4
2023-05-16T00:23:46.129Z,956.3
2023-05-16T00:27:04.555Z,956.3
2023-05-16T00:28:09.700Z,956.3
2023-05-16T00:30:22.009Z,956.3
2023-05-16T00:31:28.135Z,956.3
2023-05-16T00:38:05.002Z,956.3
2023-05-16T00:42:29.583Z,956.2
2023-05-16T00:44:40.868Z,956.2
2023-05-16T00:45:47.021Z,956.2
2023-05-16T00:46:53.169Z,956.2
2023-05-16T00:47:59.312Z,956.2
2023-05-16T00:52:23.900Z,956.2
2023-05-16T00:54:36.158Z,956.2
2023-05-16T01:00:06.893Z,956.1
2023-05-16T01:01:12.039Z,956.1
2023-05-16T01:02:18.187Z,956.2
2023-05-16T01:03:24.349Z,956.2
2023-05-16T01:04:30.458Z,956.2
2023-05-16T01:05:36.610Z,956.2
2023-05-16T01:07:48.899Z,956.2
2023-05-16T01:10:01.191Z,956.1
2023-05-16T01:11:07.332Z,956.1
2023-05-16T01:13:19.608Z,956.1
2023-05-16T01:15:31.896Z,956.1
2023-05-16T01:16:37.072Z,956.1
2023-05-16T01:17:43.198Z,956.1
2023-05-16T01:21:01.623Z,956.1
2023-05-16T01:22:07.783Z,956.1
2023-05-16T01:23:13.910Z,956.1
2023-05-16T01:24:20.052Z,956.1
2023-05-16T01:25:26.206Z,956.1
2023-05-16T01:26:32.569Z,956.1
2023-05-16T01:27:38.485Z,956.1
2023-05-16T01:29:50.767Z,956.1
2023-05-16T01:32:02.084Z,956.1
2023-05-16T01:34:14.350Z,956.1
2023-05-16T01:37:31.812Z,956.1
2023-05-16T01:38:36.979Z,956.1
2023-05-16T01:39:43.124Z,956.1
2023-05-16T01:40:49.262Z,956.1
2023-05-16T01:41:55.424Z,956.1
2023-05-16T01:44:07.688Z,956.1
2023-05-16T01:45:13.844Z,956
2023-05-16T01:46:19.990Z,956.1
2023-05-16T01:48:32.276Z,956
2023-05-16T01:50:44.545Z,956
2023-05-16T01:51:50.706Z,956.1
2023-05-16T01:54:01.995Z,956
2023-05-16T01:56:14.281Z,956
2023-05-16T01:59:32.714Z,956
2023-05-16T02:06:09.583Z,956
2023-05-16T02:07:14.732Z,956
2023-05-16T02:08:20.892Z,956
2023-05-16T02:09:27.032Z,956
2023-05-16T02:10:33.156Z,956
2023-05-16T02:13:51.615Z,956
2023-05-16T02:14:57.756Z,956
2023-05-16T02:16:03.900Z,956
2023-05-16T02:17:10.025Z,956
2023-05-16T02:18:16.171Z,956
2023-05-16T02:23:46.879Z,956
2023-05-16T02:24:52.042Z,956
2023-05-16T02:25:58.186Z,956
2023-05-16T02:27:04.324Z,956
2023-05-16T02:29:16.630Z,956
2023-05-16T02:30:22.745Z,956
2023-05-16T02:32:35.041Z,956
2023-05-16T02:33:41.176Z,956
2023-05-16T02:39:11.912Z,956
2023-05-16T02:40:17.058Z,955.9
2023-05-16T02:41:23.207Z,955.9
2023-05-16T02:43:35.501Z,955.9
2023-05-16T02:46:53.913Z,955.8
2023-05-16T02:49:06.217Z,955.8
2023-05-16T02:50:12.346Z,955.8
2023-05-16T02:54:36.918Z,955.8
2023-05-16T02:56:48.228Z,955.8
2023-05-16T02:59:00.519Z,955.8
2023-05-16T03:00:06.644Z,955.8
2023-05-16T03:03:25.077Z,955.8
2023-05-16T03:04:31.225Z,955.8
2023-05-16T03:06:43.513Z,955.8
2023-05-16T03:08:55.817Z,955.7
2023-05-16T03:11:07.103Z,955.7
2023-05-16T03:13:19.382Z,955.7
2023-05-16T03:16:37.814Z,955.7
2023-05-16T03:18:50.097Z,955.7
2023-05-16T03:19:56.249Z,955.7
2023-05-16T03:21:02.385Z,955.7
2023-05-16T03:22:08.551Z,955.7
2023-05-16T03:23:14.675Z,955.7
2023-05-16T03:24:19.868Z,955.7
2023-05-16T03:25:26.007Z,955.7
2023-05-16T03:27:38.264Z,955.7
2023-05-16T03:33:09.035Z,955.7
2023-05-16T03:34:15.197Z,955.7
2023-05-16T03:35:21.326Z,955.7
2023-05-16T03:36:27.462Z,955.7
2023-05-16T03:38:39.754Z,955.7
2023-05-16T03:39:44.909Z,955.7
2023-05-16T03:40:51.061Z,955.6
2023-05-16T03:41:57.202Z,955.6
2023-05-16T03:44:09.497Z,955.6
2023-05-16T03:46:21.781Z,955.6
2023-05-16T03:48:34.106Z,955.6
2023-05-16T03:49:40.202Z,955.6
2023-05-16T03:50:46.343Z,955.6
2023-05-16T03:52:58.628Z,955.6
2023-05-16T03:54:04.775Z,955.6
2023-05-16T03:55:09.965Z,955.6
2023-05-16T03:56:16.077Z,955.6
2023-05-16T03:57:22.245Z,955.6
2023-05-16T04:01:46.798Z,955.7
2023-05-16T04:02:52.936Z,955.7
2023-05-16T04:05:05.230Z,955.7
2023-05-16T04:06:11.373Z,955.7
2023-05-16T04:08:23.654Z,955.8
2023-05-16T04:10:34.960Z,955.8
2023-05-16T04:11:41.137Z,955.8
2023-05-16T04:12:47.242Z,955.8
2023-05-16T04:18:17.957Z,955.8
2023-05-16T04:19:24.108Z,955.8
2023-05-16T04:22:42.539Z,955.8
2023-05-16T04:24:53.845Z,955.8
2023-05-16T04:25:59.972Z,955.8
2023-05-16T04:27:06.128Z,955.8
2023-05-16T04:28:12.262Z,955.8
2023-05-16T04:29:18.403Z,955.8
2023-05-16T04:30:24.568Z,955.8
2023-05-16T04:33:42.977Z,955.8
2023-05-16T04:34:49.141Z,955.8
2023-05-16T04:35:55.266Z,955.8
2023-05-16T04:38:07.553Z,955.9
2023-05-16T04:39:12.724Z,955.8
2023-05-16T04:42:31.141Z,955.9
2023-05-16T04:43:37.284Z,955.9
2023-05-16T04:45:49.566Z,955.9
2023-05-16T04:48:01.862Z,955.9
2023-05-16T04:50:14.145Z,955.9
2023-05-16T04:52:26.435Z,955.9
2023-05-16T04:53:31.587Z,955.9
2023-05-16T04:55:43.887Z,955.9
2023-05-16T04:56:50.039Z,955.9
2023-05-16T04:57:56.163Z,955.9
2023-05-16T04:59:02.305Z,955.9
2023-05-16T05:00:08.464Z,956
2023-05-16T05:02:20.739Z,955.9
2023-05-16T05:03:26.892Z,955.9
2023-05-16T05:04:33.029Z,955.9
2023-05-16T05:07:51.471Z,955.9
2023-05-16T05:08:56.611Z,955.9
2023-05-16T05:10:02.754Z,955.9
2023-05-16T05:13:21.184Z,956
2023-05-16T05:14:27.341Z,956
2023-05-16T05:15:33.476Z,956
2023-05-16T05:17:45.760Z,956
2023-05-16T05:18:51.901Z,956
2023-05-16T05:19:57.080Z,956
2023-05-16T05:23:15.491Z,956
2023-05-16T05:24:21.652Z,956
2023-05-16T05:27:40.062Z,956.1
2023-05-16T05:28:46.215Z,956.1
2023-05-16T05:30:58.512Z,956.1
2023-05-16T05:32:04.650Z,956.1
2023-05-16T05:34:16.940Z,956.1
2023-05-16T05:35:22.101Z,956.1
2023-05-16T05:36:28.244Z,956.1
2023-05-16T05:39:46.704Z,956.1
2023-05-16T05:40:52.801Z,956.1
2023-05-16T05:41:58.962Z,956
2023-05-16T05:43:05.092Z,956.1
2023-05-16T05:44:11.234Z,956.1
2023-05-16T05:45:17.387Z,956.1
2023-05-16T05:47:29.663Z,956
2023-05-16T05:48:35.806Z,956
2023-05-16T05:51:53.260Z,956
2023-05-16T05:52:59.398Z,956
2023-05-16T05:56:17.833Z,956
2023-05-16T05:57:23.964Z,956.1
2023-05-16T05:58:30.118Z,956
2023-05-16T05:59:36.284Z,956.1
2023-05-16T06:01:48.537Z,956.1
2023-05-16T06:02:54.698Z,956.1
2023-05-16T06:03:59.852Z,956.1
2023-05-16T06:05:05.998Z,956.1
2023-05-16T06:07:18.280Z,956.1
2023-05-16T06:08:24.424Z,956.1
2023-05-16T06:12:49.158Z,956.1
2023-05-16T06:13:55.261Z,956.1
2023-05-16T06:17:13.682Z,956.2
2023-05-16T06:19:25.011Z,956.2
2023-05-16T06:20:31.138Z,956.2
2023-05-16T06:21:37.282Z,956.2
2023-05-16T06:23:49.575Z,956.2
2023-05-16T06:24:55.708Z,956.2
2023-05-16T06:27:07.995Z,956.2
2023-05-16T06:28:14.178Z,956.3
2023-05-16T06:29:20.276Z,956.2
2023-05-16T06:30:26.413Z,956.2
2023-05-16T06:31:32.562Z,956.2
2023-05-16T06:32:37.724Z,956.2
2023-05-16T06:33:43.876Z,956.2
2023-05-16T06:34:50.010Z,956.2
2023-05-16T06:41:26.871Z,956.2
2023-05-16T06:42:33.027Z,956.2
2023-05-16T06:43:39.163Z,956.2
2023-05-16T06:44:45.339Z,956.2
2023-05-16T06:46:57.587Z,956.1
2023-05-16T06:48:02.752Z,956.1
2023-05-16T06:49:08.890Z,956.1
2023-05-16T06:50:15.040Z,956.2
2023-05-16T06:51:21.175Z,956.1
2023-05-16T06:53:33.483Z,956.1
2023-05-16T06:54:39.733Z,956.1
2023-05-16T06:55:45.746Z,956.1
2023-05-16T06:56:51.928Z,956.1
2023-05-16T06:57:58.029Z,956.1
2023-05-16T06:59:04.225Z,956.1
2023-05-16T07:00:10.322Z,956.1
2023-05-16T07:02:22.612Z,956.2
2023-05-16T07:04:33.902Z,956.2
2023-05-16T07:05:40.061Z,956.2
2023-05-16T07:06:46.197Z,956.2
2023-05-16T07:07:52.352Z,956.1
2023-05-16T07:08:58.495Z,956.2
2023-05-16T07:11:10.773Z,956.2
2023-05-16T07:12:16.913Z,956.2
2023-05-16T07:13:23.047Z,956.2
2023-05-16T07:14:29.202Z,956.2
2023-05-16T07:15:35.334Z,956.2
2023-05-16T07:16:41.517Z,956.2
2023-05-16T07:17:46.678Z,956.2
2023-05-16T07:18:52.781Z,956.3
2023-05-16T07:19:58.925Z,956.3
2023-05-16T07:21:05.065Z,956.3
2023-05-16T07:22:11.231Z,956.3
2023-05-16T07:23:17.377Z,956.3
2023-05-16T07:24:23.498Z,956.3
2023-05-16T07:26:35.785Z,956.3
2023-05-16T07:27:41.933Z,956.3
2023-05-16T07:28:48.078Z,956.3
2023-05-16T07:29:54.224Z,956.3
2023-05-16T07:31:00.358Z,956.3
2023-05-16T07:32:05.526Z,956.3
2023-05-16T07:33:11.660Z,956.3
2023-05-16T07:34:16.863Z,956.3
2023-05-16T07:36:29.116Z,956.3
2023-05-16T07:37:34.280Z,956.3
2023-05-16T07:38:40.415Z,956.3
2023-05-16T07:39:46.560Z,956.3
2023-05-16T07:40:52.741Z,956.4
2023-05-16T07:43:05.037Z,956.4
2023-05-16T07:44:11.181Z,956.4
2023-05-16T07:45:17.384Z,956.3
2023-05-16T07:46:23.553Z,956.3
2023-05-16T07:47:28.779Z,956.4
2023-05-16T07:48:33.988Z,956.4
2023-05-16T07:49:39.897Z,956.4
2023-05-16T07:51:52.171Z,956.4
2023-05-16T07:52:58.313Z,956.4
2023-05-16T07:56:16.749Z,956.4
2023-05-16T07:57:22.922Z,956.4
2023-05-16T07:58:29.049Z,956.4
2023-05-16T07:59:35.216Z,956.4
2023-05-16T08:00:41.314Z,956.3
2023-05-16T08:01:47.471Z,956.3
2023-05-16T08:02:52.617Z,956.3
2023-05-16T08:03:58.759Z,956.3
2023-05-16T08:07:17.221Z,956.3
2023-05-16T08:08:23.341Z,956.3
2023-05-16T08:11:41.770Z,956.3
2023-05-16T08:12:47.913Z,956.3
2023-05-16T08:13:54.120Z,956.3
2023-05-16T08:15:00.218Z,956.3
2023-05-16T08:17:12.595Z,956.4
2023-05-16T08:18:17.639Z,956.4
2023-05-16T08:20:29.930Z,956.4
2023-05-16T08:21:36.069Z,956.4
2023-05-16T08:22:42.223Z,956.4
2023-05-16T08:24:54.497Z,956.4
2023-05-16T08:26:00.639Z,956.4
2023-05-16T08:28:12.928Z,956.4
2023-05-16T08:29:19.066Z,956.4
2023-05-16T08:30:25.248Z,956.4
2023-05-16T08:32:37.537Z,956.4
2023-05-16T08:33:43.667Z,956.4
2023-05-16T08:34:48.813Z,956.4
2023-05-16T08:35:54.932Z,956.4
2023-05-16T08:37:01.099Z,956.4
2023-05-16T08:38:07.226Z,956.4
2023-05-16T08:41:25.831Z,956.4
2023-05-16T08:42:31.953Z,956.4
2023-05-16T08:43:38.078Z,956.4
2023-05-16T08:44:44.096Z,956.5
2023-05-16T08:45:50.435Z,956.4
2023-05-16T08:46:56.379Z,956.4
2023-05-16T08:48:02.531Z,956.5
2023-05-16T08:49:07.668Z,956.5
2023-05-16T08:50:13.805Z,956.5
2023-05-16T08:52:26.102Z,956.4
2023-05-16T08:53:32.253Z,956.4
2023-05-16T08:55:44.544Z,956.4
2023-05-16T08:57:56.827Z,956.4
2023-05-16T09:00:09.232Z,956.4
2023-05-16T09:01:14.370Z,956.4
2023-05-16T09:02:20.419Z,956.4
2023-05-16T09:03:26.690Z,956.4
2023-05-16T09:05:39.003Z,956.4
2023-05-16T09:06:44.983Z,956.4
2023-05-16T09:07:51.124Z,956.4
2023-05-16T09:08:57.270Z,956.3
2023-05-16T09:10:03.545Z,956.3
2023-05-16T09:11:09.551Z,956.3
2023-05-16T09:12:15.720Z,956.3
2023-05-16T09:14:27.986Z,956.3
2023-05-16T09:15:34.167Z,956.3
2023-05-16T09:16:39.284Z,956.3
2023-05-16T09:18:51.586Z,956.4
2023-05-16T09:21:03.868Z,956.3
2023-05-16T09:22:10.012Z,956.3
2023-05-16T09:23:16.148Z,956.3
2023-05-16T09:26:34.605Z,956.2
2023-05-16T09:30:59.146Z,956.2
2023-05-16T09:32:04.319Z,956.1
2023-05-16T09:33:10.460Z,956.1
2023-05-16T09:34:16.599Z,956.1
2023-05-16T09:35:22.730Z,956.1
2023-05-16T09:36:28.890Z,956.1
2023-05-16T09:37:35.024Z,956.2
2023-05-16T09:39:47.312Z,956.1
2023-05-16T09:40:53.482Z,956.1
2023-05-16T09:43:05.733Z,956.1
2023-05-16T09:44:11.882Z,956.1
2023-05-16T09:47:30.312Z,956.1
2023-05-16T09:48:35.471Z,956.2
2023-05-16T09:49:41.647Z,956.2
2023-05-16T09:50:47.745Z,956.2
2023-05-16T09:51:53.902Z,956.2
2023-05-16T09:53:00.045Z,956.2
2023-05-16T09:55:12.349Z,956.1
2023-05-16T09:56:18.469Z,956.1
2023-05-16T09:57:24.619Z,956.1
2023-05-16T09:59:36.898Z,956.1
2023-05-16T10:00:43.049Z,956
2023-05-16T10:01:49.187Z,956
2023-05-16T10:02:54.391Z,956
2023-05-16T10:04:00.495Z,956
2023-05-16T10:05:06.627Z,956
2023-05-16T10:07:18.911Z,956.1
2023-05-16T10:09:31.195Z,956.1
2023-05-16T10:10:37.380Z,956.1
2023-05-16T10:11:43.479Z,956.1
2023-05-16T10:12:49.669Z,956.1
2023-05-16T10:13:55.768Z,956.1
2023-05-16T10:16:08.068Z,956.1
2023-05-16T10:17:13.215Z,956.1
2023-05-16T10:18:19.362Z,956.2
2023-05-16T10:19:25.533Z,956.1
2023-05-16T10:20:31.643Z,956.1
2023-05-16T10:22:43.929Z,956.1
2023-05-16T10:23:50.091Z,956.1
2023-05-16T10:24:56.208Z,956.1
2023-05-16T10:26:02.446Z,956.1
2023-05-16T10:27:08.503Z,956.1
2023-05-16T10:29:20.893Z,956.1
2023-05-16T10:30:26.930Z,956.1
2023-05-16T10:31:33.204Z,956.2
2023-05-16T10:32:38.230Z,956.1
2023-05-16T10:33:44.386Z,956.2
2023-05-16T10:34:50.520Z,956.2
2023-05-16T10:35:56.689Z,956.1
2023-05-16T10:37:02.851Z,956.1
2023-05-16T10:38:08.948Z,956.1
2023-05-16T10:39:15.086Z,956.2
2023-05-16T10:40:21.234Z,956.1
2023-05-16T10:41:27.381Z,956.1
2023-05-16T10:42:33.521Z,956.2
2023-05-16T10:45:51.955Z,956.2
2023-05-16T10:46:58.090Z,956.2
2023-05-16T10:48:04.241Z,956.2
2023-05-16T10:49:09.421Z,956.2
2023-05-16T10:50:15.526Z,956.2
2023-05-16T10:51:21.677Z,956.2
2023-05-16T10:54:40.103Z,956.2
2023-05-16T10:55:46.239Z,956.2
2023-05-16T10:56:52.402Z,956.2
2023-05-16T10:57:58.535Z,956.2
2023-05-16T10:59:04.688Z,956.3
2023-05-16T11:00:10.816Z,956.2
2023-05-16T11:01:16.959Z,956.3
2023-05-16T11:02:23.101Z,956.3
2023-05-16T11:03:29.249Z,956.3
2023-05-16T11:04:34.412Z,956.4
2023-05-16T11:05:40.546Z,956.3
2023-05-16T11:06:46.700Z,956.3
2023-05-16T11:07:52.835Z,956.4
2023-05-16T11:08:59.012Z,956.3
2023-05-16T11:10:05.121Z,956.4
2023-05-16T11:11:11.274Z,956.3
2023-05-16T11:12:17.422Z,956.4
2023-05-16T11:13:23.549Z,956.3
2023-05-16T11:14:29.709Z,956.3
2023-05-16T11:15:35.850Z,956.4
2023-05-16T11:16:41.012Z,956.4
2023-05-16T11:18:53.291Z,956.3
2023-05-16T11:19:58.465Z,956.3
2023-05-16T11:22:10.769Z,956.4
2023-05-16T11:23:16.907Z,956.3
2023-05-16T11:24:23.069Z,956.3
2023-05-16T11:25:29.192Z,956.3
2023-05-16T11:26:35.397Z,956.3
2023-05-16T11:27:41.718Z,956.3
2023-05-16T11:28:47.598Z,956.4
2023-05-16T11:29:52.786Z,956.4
2023-05-16T11:30:57.935Z,956.4
2023-05-16T11:32:04.068Z,956.4
2023-05-16T11:33:10.221Z,956.4
2023-05-16T11:35:22.504Z,956.4
2023-05-16T11:36:28.640Z,956.5
2023-05-16T11:37:34.821Z,956.5
2023-05-16T11:38:40.936Z,956.4
2023-05-16T11:39:47.071Z,956.5
2023-05-16T11:40:53.205Z,956.5
2023-05-16T11:44:11.818Z,956.5
2023-05-16T11:45:17.926Z,956.5
2023-05-16T11:46:23.102Z,956.5
2023-05-16T11:47:29.237Z,956.5
2023-05-16T11:48:35.385Z,956.5
2023-05-16T11:49:41.525Z,956.5
2023-05-16T11:51:53.792Z,956.5
2023-05-16T11:52:59.945Z,956.5
2023-05-16T11:54:06.093Z,956.5
2023-05-16T11:55:12.263Z,956.5
2023-05-16T11:59:36.945Z,956.6
2023-05-16T12:00:42.070Z,956.6
2023-05-16T12:01:48.199Z,956.6
2023-05-16T12:05:06.526Z,956.7
2023-05-16T12:06:12.670Z,956.7
2023-05-16T12:07:18.816Z,956.7
2023-05-16T12:09:31.106Z,956.7
2023-05-16T12:10:37.262Z,956.7
2023-05-16T12:12:49.547Z,956.8
2023-05-16T12:13:55.677Z,956.8
2023-05-16T12:16:07.959Z,956.8
2023-05-16T12:17:14.113Z,956.8
2023-05-16T12:18:19.271Z,956.8
2023-05-16T12:19:25.407Z,956.8
2023-05-16T12:21:37.710Z,956.8
2023-05-16T12:22:43.839Z,956.8
2023-05-16T12:23:49.980Z,956.8
2023-05-16T12:24:56.175Z,956.9
2023-05-16T12:26:02.271Z,956.8
2023-05-16T12:28:14.554Z,956.9
2023-05-16T12:29:20.709Z,956.9
2023-05-16T12:32:39.143Z,956.9
2023-05-16T12:33:44.300Z,956.8
2023-05-16T12:34:50.437Z,956.9
2023-05-16T12:38:08.991Z,956.9
2023-05-16T12:39:15.132Z,956.9
2023-05-16T12:40:21.295Z,957
2023-05-16T12:41:27.423Z,957
2023-05-16T12:42:33.710Z,956.9
2023-05-16T12:43:39.849Z,956.9
2023-05-16T12:44:45.974Z,956.9
2023-05-16T12:45:52.128Z,956.9
2023-05-16T12:46:58.274Z,956.9
2023-05-16T12:49:10.553Z,956.9
2023-05-16T12:51:22.833Z,957
2023-05-16T12:53:35.129Z,957
2023-05-16T12:59:05.824Z,957
2023-05-16T13:01:17.135Z,957
2023-05-16T13:02:23.303Z,957
2023-05-16T13:03:29.419Z,957
2023-05-16T13:06:47.873Z,957
2023-05-16T13:09:00.137Z,957
2023-05-16T13:10:06.300Z,957
2023-05-16T13:11:12.426Z,957
2023-05-16T13:13:24.710Z,957.1
2023-05-16T13:14:29.871Z,957.1
2023-05-16T13:15:36.018Z,957
2023-05-16T13:16:42.213Z,957.1
2023-05-16T13:17:48.340Z,957.1
2023-05-16T13:18:54.451Z,957.1
2023-05-16T13:21:06.778Z,957.1
2023-05-16T13:22:12.865Z,957.1
2023-05-16T13:24:25.176Z,957.2
2023-05-16T13:25:31.297Z,957.2
2023-05-16T13:26:37.467Z,957.2
2023-05-16T13:27:43.581Z,957.1
2023-05-16T13:28:48.743Z,957.1
2023-05-16T13:31:01.056Z,957.1
2023-05-16T13:32:07.183Z,957.2
2023-05-16T13:34:19.463Z,957.1
2023-05-16T13:35:25.649Z,957.2
2023-05-16T13:36:31.748Z,957.2
2023-05-16T13:38:44.031Z,957.2
2023-05-16T13:43:08.610Z,957.3
2023-05-16T13:44:14.753Z,957.3
2023-05-16T13:47:32.184Z,957.3
2023-05-16T13:49:44.475Z,957.3
2023-05-16T13:50:50.644Z,957.2
2023-05-16T13:53:02.915Z,957.3
2023-05-16T13:56:21.334Z,957.3
2023-05-16T13:58:33.618Z,957.4
2023-05-16T14:00:44.932Z,957.3
2023-05-16T14:02:57.210Z,957.4
2023-05-16T14:04:03.352Z,957.4
2023-05-16T14:05:09.498Z,957.4
2023-05-16T14:07:21.833Z,957.4
2023-05-16T14:08:27.959Z,957.4
2023-05-16T14:12:52.498Z,957.4
2023-05-16T14:13:58.651Z,957.4
2023-05-16T14:18:22.232Z,957.4
2023-05-16T14:19:28.384Z,957.4
2023-05-16T14:20:34.533Z,957.4
2023-05-16T14:22:46.817Z,957.4
2023-05-16T14:23:52.940Z,957.5
2023-05-16T14:28:17.549Z,957.4
2023-05-16T14:29:23.787Z,957.4
2023-05-16T14:30:29.922Z,957.4
2023-05-16T14:31:36.138Z,957.4
2023-05-16T14:32:42.217Z,957.5
2023-05-16T14:33:48.360Z,957.5
2023-05-16T14:37:06.776Z,957.5
2023-05-16T14:38:12.923Z,957.4
2023-05-16T14:39:19.077Z,957.5
2023-05-16T14:40:25.221Z,957.4
2023-05-16T14:42:37.501Z,957.5
2023-05-16T14:45:54.990Z,957.5
2023-05-16T14:47:01.079Z,957.5
2023-05-16T14:49:13.374Z,957.6
2023-05-16T14:50:19.523Z,957.5
2023-05-16T14:52:31.796Z,957.6
2023-05-16T14:53:37.942Z,957.6
2023-05-16T14:54:44.080Z,957.7
2023-05-16T14:56:56.374Z,957.7
2023-05-16T14:58:01.530Z,957.6
2023-05-16T15:01:19.957Z,957.7
2023-05-16T15:02:26.103Z,957.7
2023-05-16T15:03:32.246Z,957.7
2023-05-16T15:05:44.586Z,957.7
2023-05-16T15:06:50.686Z,957.8
2023-05-16T15:07:56.881Z,957.7
2023-05-16T15:09:02.971Z,957.7
2023-05-16T15:10:09.102Z,957.7
2023-05-16T15:11:15.239Z,957.7
2023-05-16T15:13:26.543Z,957.7
2023-05-16T15:14:32.709Z,957.7
2023-05-16T15:17:51.122Z,957.7
2023-05-16T15:22:15.696Z,957.8
2023-05-16T15:23:21.819Z,957.7
2023-05-16T15:24:28.055Z,957.7
2023-05-16T15:26:40.261Z,957.7
2023-05-16T15:27:46.427Z,957.8
2023-05-16T15:28:51.586Z,957.7
2023-05-16T15:29:57.720Z,957.8
2023-05-16T15:31:03.858Z,957.7
2023-05-16T15:32:10.006Z,957.8
2023-05-16T15:34:22.452Z,957.7
2023-05-16T15:36:34.565Z,957.7
2023-05-16T15:37:40.756Z,957.7
2023-05-16T15:38:46.865Z,957.7
2023-05-16T15:39:53.007Z,957.8
2023-05-16T15:40:59.133Z,957.7
2023-05-16T15:42:05.282Z,957.7
2023-05-16T15:43:10.446Z,957.7
2023-05-16T15:44:16.603Z,957.8
2023-05-16T15:45:22.720Z,957.8
2023-05-16T15:46:28.875Z,957.8
2023-05-16T15:47:35.021Z,957.8
2023-05-16T15:48:41.162Z,957.8
2023-05-16T15:50:53.453Z,957.8
2023-05-16T15:51:59.585Z,957.8
2023-05-16T15:53:05.885Z,957.8
2023-05-16T15:54:11.901Z,957.8
2023-05-16T15:55:18.012Z,957.9
2023-05-16T15:56:24.238Z,957.9
2023-05-16T15:58:35.580Z,957.9
2023-05-16T15:59:41.745Z,958
2023-05-16T16:01:53.897Z,958
2023-05-16T16:03:00.040Z,957.9
2023-05-16T16:04:06.176Z,957.9
2023-05-16T16:05:12.359Z,958
2023-05-16T16:07:24.614Z,958
2023-05-16T16:08:30.750Z,958
2023-05-16T16:09:37.042Z,957.9
2023-05-16T16:11:49.176Z,958
2023-05-16T16:12:54.349Z,958
2023-05-16T16:14:00.474Z,958
2023-05-16T16:15:06.640Z,958
2023-05-16T16:16:12.847Z,958
2023-05-16T16:17:18.908Z,958
2023-05-16T16:18:25.058Z,958.1
2023-05-16T16:19:31.512Z,958.1
2023-05-16T16:20:37.337Z,958.1
2023-05-16T16:21:43.521Z,958.2
2023-05-16T16:23:55.769Z,958.1
2023-05-16T16:26:07.076Z,958.2
2023-05-16T16:27:13.258Z,958.1
2023-05-16T16:29:24.533Z,958.1
2023-05-16T16:30:29.766Z,958.2
2023-05-16T16:31:35.860Z,958.2
2023-05-16T16:32:41.987Z,958.2
2023-05-16T16:33:48.126Z,958.2
2023-05-16T16:34:54.380Z,958.2
2023-05-16T16:37:06.573Z,958.2
2023-05-16T16:38:12.700Z,958.2
2023-05-16T16:40:25.014Z,958.2
2023-05-16T16:41:31.188Z,958.3
2023-05-16T16:42:37.256Z,958.3
2023-05-16T16:43:43.426Z,958.3
2023-05-16T16:44:49.727Z,958.3
2023-05-16T16:45:55.913Z,958.3
2023-05-16T16:47:02.238Z,958.3
2023-05-16T16:48:08.096Z,958.3
2023-05-16T16:49:14.260Z,958.4
2023-05-16T16:50:20.515Z,958.4
2023-05-16T16:51:26.532Z,958.4
2023-05-16T16:52:32.672Z,958.4
2023-05-16T16:53:38.930Z,958.4
2023-05-16T16:54:44.966Z,958.4
2023-05-16T16:56:57.248Z,958.5
2023-05-16T16:59:09.535Z,958.5
2023-05-16T17:01:20.975Z,958.5
2023-05-16T17:02:27.128Z,958.5
2023-05-16T17:04:39.322Z,958.5
2023-05-16T17:05:45.405Z,958.6
2023-05-16T17:06:51.683Z,958.5
2023-05-16T17:07:57.707Z,958.5
2023-05-16T17:09:03.840Z,958.6
2023-05-16T17:10:09.994Z,958.6
2023-05-16T17:11:16.157Z,958.6
2023-05-16T17:13:28.471Z,958.6
2023-05-16T17:15:40.785Z,958.7
2023-05-16T17:16:45.864Z,958.7
2023-05-16T17:17:52.001Z,958.7
2023-05-16T17:18:58.187Z,958.7
2023-05-16T17:21:10.434Z,958.7
2023-05-16T17:23:22.763Z,958.8
2023-05-16T17:25:35.001Z,958.8
2023-05-16T17:26:41.149Z,958.8
2023-05-16T17:27:47.312Z,958.8
2023-05-16T17:29:59.651Z,958.8
2023-05-16T17:31:04.868Z,958.8
2023-05-16T17:33:17.032Z,958.8
2023-05-16T17:34:23.163Z,958.9
2023-05-16T17:35:29.373Z,958.8
2023-05-16T17:37:41.639Z,958.9
2023-05-16T17:38:47.737Z,958.8
2023-05-16T17:39:53.927Z,958.8
2023-05-16T17:41:00.015Z,958.8
2023-05-16T17:42:06.207Z,958.9
2023-05-16T17:43:12.319Z,958.9
2023-05-16T17:45:24.637Z,958.9
2023-05-16T17:46:30.743Z,958.9
2023-05-16T17:47:35.986Z,958.9
2023-05-16T17:48:42.045Z,958.9
2023-05-16T17:52:00.513Z,958.9
2023-05-16T17:53:06.609Z,958.9
2023-05-16T17:55:18.903Z,958.9
2023-05-16T17:57:31.282Z,958.9
2023-05-16T17:58:37.330Z,959
2023-05-16T17:59:43.466Z,959
2023-05-16T18:00:49.614Z,959
2023-05-16T18:01:54.916Z,959
2023-05-16T18:03:00.933Z,959
2023-05-16T18:04:07.054Z,959
2023-05-16T18:05:13.218Z,959
2023-05-16T18:07:25.492Z,959.1
2023-05-16T18:08:31.686Z,959.1
2023-05-16T18:09:37.775Z,959.1
2023-05-16T18:10:43.966Z,959.1
2023-05-16T18:11:50.114Z,959.2
2023-05-16T18:12:56.225Z,959.2
2023-05-16T18:14:02.458Z,959.2
2023-05-16T18:15:08.493Z,959.3
2023-05-16T18:16:13.707Z,959.3
2023-05-16T18:17:19.805Z,959.3
2023-05-16T18:20:38.228Z,959.3
2023-05-16T18:21:44.371Z,959.3
2023-05-16T18:22:50.516Z,959.3
2023-05-16T18:23:56.654Z,959.3
2023-05-16T18:25:02.860Z,959.3
2023-05-16T18:26:09.117Z,959.3
2023-05-16T18:27:15.141Z,959.3
2023-05-16T18:28:21.226Z,959.3
2023-05-16T18:29:27.473Z,959.3
2023-05-16T18:30:32.590Z,959.4
2023-05-16T18:31:38.695Z,959.4
2023-05-16T18:32:44.821Z,959.4
2023-05-16T18:33:51.007Z,959.4
2023-05-16T18:36:03.251Z,959.4
2023-05-16T18:40:27.826Z,959.5
2023-05-16T18:41:33.953Z,959.5
2023-05-16T18:42:40.138Z,959.5
2023-05-16T18:43:46.263Z,959.5
2023-05-16T18:44:51.480Z,959.6
2023-05-16T18:45:57.549Z,959.6
2023-05-16T18:48:09.841Z,959.6
2023-05-16T18:49:16.010Z,959.6
2023-05-16T18:50:22.113Z,959.6
2023-05-16T18:53:40.661Z,959.7
2023-05-16T18:54:46.871Z,959.7
2023-05-16T18:55:52.985Z,959.7
2023-05-16T18:56:59.081Z,959.8
2023-05-16T18:58:05.127Z,959.8
2023-05-16T18:59:10.425Z,959.8
2023-05-16T19:01:22.662Z,959.8
2023-05-16T19:02:28.789Z,959.8
2023-05-16T19:03:34.876Z,959.8
2023-05-16T19:04:41.021Z,959.9
2023-05-16T19:05:47.140Z,959.8
2023-05-16T19:06:53.274Z,959.9
2023-05-16T19:07:59.633Z,959.9
2023-05-16T19:10:11.760Z,960
2023-05-16T19:11:17.958Z,960
2023-05-16T19:12:24.027Z,960
2023-05-16T19:13:29.320Z,960
2023-05-16T19:14:35.298Z,960
2023-05-16T19:16:47.581Z,960
2023-05-16T19:17:53.729Z,960
2023-05-16T19:18:59.883Z,960
2023-05-16T19:20:06.024Z,960.1
2023-05-16T19:21:12.168Z,960.1
2023-05-16T19:22:18.300Z,960.1
2023-05-16T19:25:36.741Z,960.2
2023-05-16T19:26:42.952Z,960.2
2023-05-16T19:27:49.245Z,960.2
2023-05-16T19:30:01.474Z,960.2
2023-05-16T19:31:07.588Z,960.2
2023-05-16T19:32:13.730Z,960.2
2023-05-16T19:34:26.003Z,960.3
2023-05-16T19:35:32.166Z,960.3
2023-05-16T19:36:38.309Z,960.3
2023-05-16T19:37:44.495Z,960.4
2023-05-16T19:39:56.737Z,960.4
2023-05-16T19:41:03.049Z,960.4
2023-05-16T19:42:09.075Z,960.4
2023-05-16T19:43:14.296Z,960.4
2023-05-16T19:44:20.435Z,960.5
2023-05-16T19:45:26.669Z,960.5
2023-05-16T19:47:38.933Z,960.5
2023-05-16T19:49:51.170Z,960.5
2023-05-16T19:50:57.328Z,960.5
2023-05-16T19:52:03.345Z,960.6
2023-05-16T19:54:15.596Z,960.6
2023-05-16T19:55:21.878Z,960.6
2023-05-16T19:56:28.078Z,960.6
2023-05-16T19:57:34.313Z,960.6
2023-05-16T20:00:52.577Z,960.6
2023-05-16T20:01:58.955Z,960.6
2023-05-16T20:04:11.032Z,960.6
2023-05-16T20:05:17.184Z,960.6
2023-05-16T20:06:23.398Z,960.7
2023-05-16T20:08:35.717Z,960.7
2023-05-16T20:09:41.878Z,960.7
2023-05-16T20:10:48.016Z,960.7
2023-05-16T20:11:53.049Z,960.7
2023-05-16T20:12:59.185Z,960.8
2023-05-16T20:15:11.454Z,960.8
2023-05-16T20:16:17.629Z,960.8
2023-05-16T20:19:36.123Z,960.8
2023-05-16T20:20:42.171Z,960.8
2023-05-16T20:22:54.514Z,960.9
2023-05-16T20:25:06.817Z,960.8
2023-05-16T20:26:11.907Z,960.9